sensor_id;sensor_type;location;lat;lon;timestamp;temperature;humidity
12557;DHT22;6344;49.932;8.308;2023-12-22T00:02:17;5.00;99.90
12557;DHT22;6344;49.932;8.308;2023-12-22T00:04:44;5.00;99.90
12557;DHT22;6344;49.932;8.308;2023-12-22T00:07:11;5.00;99.90
12557;DHT22;6344;49.932;8.308;2023-12-22T00:09:39;5.10;99.90
12557;DHT22;6344;49.932;8.308;2023-12-22T00:12:06;5.10;99.90
12557;DHT22;6344;49.932;8.308;2023-12-22T00:14:33;5.20;99.90
12557;DHT22;6344;49.932;8.308;2023-12-22T00:16:59;5.30;99.90
12557;DHT22;6344;49.932;8.308;2023-12-22T00:19:26;5.30;99.90
12557;DHT22;6344;49.932;8.308;2023-12-22T00:21:53;5.20;99.90
12557;DHT22;6344;49.932;8.308;2023-12-22T00:24:19;5.20;99.90
12557;DHT22;6344;49.932;8.308;2023-12-22T00:26:47;5.10;99.90
12557;DHT22;6344;49.932;8.308;2023-12-22T00:29:14;5.00;99.90
12557;DHT22;6344;49.932;8.308;2023-12-22T00:31:40;5.00;99.90
12557;DHT22;6344;49.932;8.308;2023-12-22T00:34:07;5.00;99.90
12557;DHT22;6344;49.932;8.308;2023-12-22T00:36:34;4.80;99.90
12557;DHT22;6344;49.932;8.308;2023-12-22T00:39:00;4.80;99.90
12557;DHT22;6344;49.932;8.308;2023-12-22T00:41:27;4.70;99.90
12557;DHT22;6344;49.932;8.308;2023-12-22T00:43:55;4.70;99.90
12557;DHT22;6344;49.932;8.308;2023-12-22T00:46:21;4.70;99.90
12557;DHT22;6344;49.932;8.308;2023-12-22T00:48:48;4.70;99.90
12557;DHT22;6344;49.932;8.308;2023-12-22T00:51:15;4.90;99.90
12557;DHT22;6344;49.932;8.308;2023-12-22T00:53:42;4.90;99.90
12557;DHT22;6344;49.932;8.308;2023-12-22T00:56:09;5.00;99.90
12557;DHT22;6344;49.932;8.308;2023-12-22T00:58:38;5.30;99.90
12557;DHT22;6344;49.932;8.308;2023-12-22T01:01:06;5.40;99.90
12557;DHT22;6344;49.932;8.308;2023-12-22T01:03:33;5.30;99.90
12557;DHT22;6344;49.932;8.308;2023-12-22T01:05:59;5.40;99.90
12557;DHT22;6344;49.932;8.308;2023-12-22T01:08:26;5.50;99.90
12557;DHT22;6344;49.932;8.308;2023-12-22T01:10:53;5.30;99.90
12557;DHT22;6344;49.932;8.308;2023-12-22T01:13:19;5.30;99.90
12557;DHT22;6344;49.932;8.308;2023-12-22T01:15:46;5.30;99.90
12557;DHT22;6344;49.932;8.308;2023-12-22T01:18:14;5.30;99.90
12557;DHT22;6344;49.932;8.308;2023-12-22T01:20:40;5.20;99.90
12557;DHT22;6344;49.932;8.308;2023-12-22T01:23:07;5.20;99.90
12557;DHT22;6344;49.932;8.308;2023-12-22T01:25:33;5.20;99.90
12557;DHT22;6344;49.932;8.308;2023-12-22T01:28:00;5.20;99.90
12557;DHT22;6344;49.932;8.308;2023-12-22T01:30:27;5.20;99.90
12557;DHT22;6344;49.932;8.308;2023-12-22T01:32:53;5.20;99.90
12557;DHT22;6344;49.932;8.308;2023-12-22T01:35:22;5.10;99.90
12557;DHT22;6344;49.932;8.308;2023-12-22T01:37:49;5.20;99.90
12557;DHT22;6344;49.932;8.308;2023-12-22T01:40:16;5.20;99.90
12557;DHT22;6344;49.932;8.308;2023-12-22T01:42:43;5.10;99.90
12557;DHT22;6344;49.932;8.308;2023-12-22T01:45:10;5.10;99.90
12557;DHT22;6344;49.932;8.308;2023-12-22T01:47:37;5.20;99.90
12557;DHT22;6344;49.932;8.308;2023-12-22T01:50:05;5.10;99.90
12557;DHT22;6344;49.932;8.308;2023-12-22T01:52:33;5.20;99.90
12557;DHT22;6344;49.932;8.308;2023-12-22T01:55:01;5.40;99.90
12557;DHT22;6344;49.932;8.308;2023-12-22T01:57:28;5.50;99.90
12557;DHT22;6344;49.932;8.308;2023-12-22T01:59:56;5.60;99.90
12557;DHT22;6344;49.932;8.308;2023-12-22T02:02:23;5.60;99.90
12557;DHT22;6344;49.932;8.308;2023-12-22T02:04:50;5.60;99.90
12557;DHT22;6344;49.932;8.308;2023-12-22T02:07:17;5.60;99.90
12557;DHT22;6344;49.932;8.308;2023-12-22T02:09:45;5.70;99.90
12557;DHT22;6344;49.932;8.308;2023-12-22T02:12:11;5.70;99.90
12557;DHT22;6344;49.932;8.308;2023-12-22T02:14:38;5.80;99.90
12557;DHT22;6344;49.932;8.308;2023-12-22T02:17:10;5.70;99.90
12557;DHT22;6344;49.932;8.308;2023-12-22T02:19:41;5.60;99.90
12557;DHT22;6344;49.932;8.308;2023-12-22T02:22:09;5.70;99.90
12557;DHT22;6344;49.932;8.308;2023-12-22T02:24:38;5.70;99.90
12557;DHT22;6344;49.932;8.308;2023-12-22T02:27:22;5.60;99.90
12557;DHT22;6344;49.932;8.308;2023-12-22T02:29:54;5.70;99.90
12557;DHT22;6344;49.932;8.308;2023-12-22T02:32:28;5.60;99.90
12557;DHT22;6344;49.932;8.308;2023-12-22T02:34:56;5.50;99.90
12557;DHT22;6344;49.932;8.308;2023-12-22T02:37:24;5.50;99.90
12557;DHT22;6344;49.932;8.308;2023-12-22T02:39:53;5.40;99.90
12557;DHT22;6344;49.932;8.308;2023-12-22T02:42:21;5.50;99.90
12557;DHT22;6344;49.932;8.308;2023-12-22T02:44:51;5.50;99.90
12557;DHT22;6344;49.932;8.308;2023-12-22T02:47:18;5.50;99.90
12557;DHT22;6344;49.932;8.308;2023-12-22T02:49:45;5.40;99.90
12557;DHT22;6344;49.932;8.308;2023-12-22T02:52:11;5.40;99.90
12557;DHT22;6344;49.932;8.308;2023-12-22T02:54:38;5.40;99.90
12557;DHT22;6344;49.932;8.308;2023-12-22T02:57:06;5.40;99.90
12557;DHT22;6344;49.932;8.308;2023-12-22T02:59:33;5.40;99.90
12557;DHT22;6344;49.932;8.308;2023-12-22T03:02:00;5.40;99.90
12557;DHT22;6344;49.932;8.308;2023-12-22T03:04:26;5.40;99.90
12557;DHT22;6344;49.932;8.308;2023-12-22T03:06:53;5.50;99.90
12557;DHT22;6344;49.932;8.308;2023-12-22T03:09:20;5.50;99.90
12557;DHT22;6344;49.932;8.308;2023-12-22T03:11:47;5.60;99.90
12557;DHT22;6344;49.932;8.308;2023-12-22T03:14:15;5.60;99.90
12557;DHT22;6344;49.932;8.308;2023-12-22T03:16:41;5.70;99.90
12557;DHT22;6344;49.932;8.308;2023-12-22T03:19:08;5.90;99.90
12557;DHT22;6344;49.932;8.308;2023-12-22T03:21:34;6.10;99.90
12557;DHT22;6344;49.932;8.308;2023-12-22T03:24:01;6.20;99.90
12557;DHT22;6344;49.932;8.308;2023-12-22T03:26:28;6.40;99.90
12557;DHT22;6344;49.932;8.308;2023-12-22T03:28:55;6.40;99.90
12557;DHT22;6344;49.932;8.308;2023-12-22T03:31:23;6.10;99.90
12557;DHT22;6344;49.932;8.308;2023-12-22T03:33:48;6.30;99.90
12557;DHT22;6344;49.932;8.308;2023-12-22T03:36:15;6.50;99.90
12557;DHT22;6344;49.932;8.308;2023-12-22T03:38:42;6.40;99.90
12557;DHT22;6344;49.932;8.308;2023-12-22T03:41:08;6.40;99.90
12557;DHT22;6344;49.932;8.308;2023-12-22T03:43:35;6.20;99.90
12557;DHT22;6344;49.932;8.308;2023-12-22T03:46:02;6.20;99.90
12557;DHT22;6344;49.932;8.308;2023-12-22T03:48:30;6.10;99.90
12557;DHT22;6344;49.932;8.308;2023-12-22T03:50:57;6.20;99.90
12557;DHT22;6344;49.932;8.308;2023-12-22T03:53:23;6.20;99.90
12557;DHT22;6344;49.932;8.308;2023-12-22T03:55:50;6.10;99.90
12557;DHT22;6344;49.932;8.308;2023-12-22T03:58:17;6.00;99.90
12557;DHT22;6344;49.932;8.308;2023-12-22T04:00:43;6.10;99.90
12557;DHT22;6344;49.932;8.308;2023-12-22T04:03:10;6.10;99.90
12557;DHT22;6344;49.932;8.308;2023-12-22T04:05:38;6.00;99.90
12557;DHT22;6344;49.932;8.308;2023-12-22T04:08:05;6.00;99.90
12557;DHT22;6344;49.932;8.308;2023-12-22T04:10:32;6.10;99.90
12557;DHT22;6344;49.932;8.308;2023-12-22T04:12:58;6.10;99.90
12557;DHT22;6344;49.932;8.308;2023-12-22T04:15:25;6.10;99.90
12557;DHT22;6344;49.932;8.308;2023-12-22T04:17:52;6.00;99.90
12557;DHT22;6344;49.932;8.308;2023-12-22T04:20:18;6.10;99.90
12557;DHT22;6344;49.932;8.308;2023-12-22T04:22:46;6.10;99.90
12557;DHT22;6344;49.932;8.308;2023-12-22T04:25:13;6.10;99.90
12557;DHT22;6344;49.932;8.308;2023-12-22T04:27:40;6.20;99.90
12557;DHT22;6344;49.932;8.308;2023-12-22T04:30:08;6.10;99.90
12557;DHT22;6344;49.932;8.308;2023-12-22T04:32:35;6.10;99.90
12557;DHT22;6344;49.932;8.308;2023-12-22T04:35:02;6.00;99.90
12557;DHT22;6344;49.932;8.308;2023-12-22T04:37:28;6.10;99.90
12557;DHT22;6344;49.932;8.308;2023-12-22T04:39:56;6.10;99.90
12557;DHT22;6344;49.932;8.308;2023-12-22T04:42:23;6.10;99.90
12557;DHT22;6344;49.932;8.308;2023-12-22T04:44:51;6.20;99.90
12557;DHT22;6344;49.932;8.308;2023-12-22T04:47:17;6.30;99.90
12557;DHT22;6344;49.932;8.308;2023-12-22T04:49:44;6.30;99.90
12557;DHT22;6344;49.932;8.308;2023-12-22T04:52:11;6.30;99.90
12557;DHT22;6344;49.932;8.308;2023-12-22T04:54:38;6.40;99.90
12557;DHT22;6344;49.932;8.308;2023-12-22T04:57:06;6.40;99.90
12557;DHT22;6344;49.932;8.308;2023-12-22T04:59:32;6.40;99.90
12557;DHT22;6344;49.932;8.308;2023-12-22T05:01:59;6.60;99.90
12557;DHT22;6344;49.932;8.308;2023-12-22T05:04:26;6.70;99.90
12557;DHT22;6344;49.932;8.308;2023-12-22T05:06:53;6.60;99.90
12557;DHT22;6344;49.932;8.308;2023-12-22T05:09:19;6.90;99.90
12557;DHT22;6344;49.932;8.308;2023-12-22T05:11:46;6.90;99.90
12557;DHT22;6344;49.932;8.308;2023-12-22T05:14:14;6.90;99.90
12557;DHT22;6344;49.932;8.308;2023-12-22T05:16:40;6.90;99.90
12557;DHT22;6344;49.932;8.308;2023-12-22T05:19:07;6.80;99.90
12557;DHT22;6344;49.932;8.308;2023-12-22T05:21:34;6.80;99.90
12557;DHT22;6344;49.932;8.308;2023-12-22T05:24:00;6.70;99.90
12557;DHT22;6344;49.932;8.308;2023-12-22T05:26:28;6.50;99.90
12557;DHT22;6344;49.932;8.308;2023-12-22T05:28:55;6.40;99.90
12557;DHT22;6344;49.932;8.308;2023-12-22T05:31:24;6.20;99.90
12557;DHT22;6344;49.932;8.308;2023-12-22T05:33:51;6.20;99.90
12557;DHT22;6344;49.932;8.308;2023-12-22T05:36:17;6.20;99.90
12557;DHT22;6344;49.932;8.308;2023-12-22T05:38:44;6.10;99.90
12557;DHT22;6344;49.932;8.308;2023-12-22T05:41:11;6.10;99.90
12557;DHT22;6344;49.932;8.308;2023-12-22T05:43:37;6.10;99.90
12557;DHT22;6344;49.932;8.308;2023-12-22T05:46:04;6.10;99.90
12557;DHT22;6344;49.932;8.308;2023-12-22T05:48:33;6.10;99.90
12557;DHT22;6344;49.932;8.308;2023-12-22T05:51:01;6.00;99.90
12557;DHT22;6344;49.932;8.308;2023-12-22T05:53:28;5.90;99.90
12557;DHT22;6344;49.932;8.308;2023-12-22T05:55:55;5.70;99.90
12557;DHT22;6344;49.932;8.308;2023-12-22T05:58:22;6.00;99.90
12557;DHT22;6344;49.932;8.308;2023-12-22T06:00:48;6.40;99.90
12557;DHT22;6344;49.932;8.308;2023-12-22T06:03:15;6.60;99.90
12557;DHT22;6344;49.932;8.308;2023-12-22T06:05:43;6.40;99.90
12557;DHT22;6344;49.932;8.308;2023-12-22T06:08:10;6.10;99.90
12557;DHT22;6344;49.932;8.308;2023-12-22T06:10:36;5.90;99.90
12557;DHT22;6344;49.932;8.308;2023-12-22T06:13:03;5.60;99.90
12557;DHT22;6344;49.932;8.308;2023-12-22T06:15:30;5.90;99.90
12557;DHT22;6344;49.932;8.308;2023-12-22T06:17:57;6.10;99.90
12557;DHT22;6344;49.932;8.308;2023-12-22T06:20:24;6.20;99.90
12557;DHT22;6344;49.932;8.308;2023-12-22T06:22:53;6.20;99.90
12557;DHT22;6344;49.932;8.308;2023-12-22T06:25:19;6.30;99.90
12557;DHT22;6344;49.932;8.308;2023-12-22T06:27:46;6.30;99.90
12557;DHT22;6344;49.932;8.308;2023-12-22T06:30:13;6.50;99.90
12557;DHT22;6344;49.932;8.308;2023-12-22T06:32:40;6.40;99.90
12557;DHT22;6344;49.932;8.308;2023-12-22T06:35:07;6.40;99.90
12557;DHT22;6344;49.932;8.308;2023-12-22T06:37:36;6.30;99.90
12557;DHT22;6344;49.932;8.308;2023-12-22T06:40:05;6.40;99.90
12557;DHT22;6344;49.932;8.308;2023-12-22T06:42:32;6.50;99.90
12557;DHT22;6344;49.932;8.308;2023-12-22T06:44:58;6.40;99.90
12557;DHT22;6344;49.932;8.308;2023-12-22T06:47:25;6.40;99.90
12557;DHT22;6344;49.932;8.308;2023-12-22T06:49:52;6.60;99.90
12557;DHT22;6344;49.932;8.308;2023-12-22T06:52:19;6.50;99.90
12557;DHT22;6344;49.932;8.308;2023-12-22T06:54:46;6.50;99.90
12557;DHT22;6344;49.932;8.308;2023-12-22T06:57:13;6.50;99.90
12557;DHT22;6344;49.932;8.308;2023-12-22T06:59:42;6.60;99.90
12557;DHT22;6344;49.932;8.308;2023-12-22T07:02:08;6.70;99.90
12557;DHT22;6344;49.932;8.308;2023-12-22T07:04:35;6.80;99.90
12557;DHT22;6344;49.932;8.308;2023-12-22T07:07:02;6.90;99.90
12557;DHT22;6344;49.932;8.308;2023-12-22T07:09:31;6.90;99.90
12557;DHT22;6344;49.932;8.308;2023-12-22T07:11:58;6.90;99.90
12557;DHT22;6344;49.932;8.308;2023-12-22T07:14:26;6.90;99.90
12557;DHT22;6344;49.932;8.308;2023-12-22T07:16:53;7.00;99.90
12557;DHT22;6344;49.932;8.308;2023-12-22T07:19:20;6.90;99.90
12557;DHT22;6344;49.932;8.308;2023-12-22T07:21:46;6.80;99.90
12557;DHT22;6344;49.932;8.308;2023-12-22T07:24:13;6.80;99.90
12557;DHT22;6344;49.932;8.308;2023-12-22T07:26:40;6.80;99.90
12557;DHT22;6344;49.932;8.308;2023-12-22T07:29:06;6.80;99.90
12557;DHT22;6344;49.932;8.308;2023-12-22T07:31:34;6.80;99.90
12557;DHT22;6344;49.932;8.308;2023-12-22T07:34:01;6.80;99.90
12557;DHT22;6344;49.932;8.308;2023-12-22T07:36:28;6.80;99.90
12557;DHT22;6344;49.932;8.308;2023-12-22T07:38:55;6.90;99.90
12557;DHT22;6344;49.932;8.308;2023-12-22T07:41:24;6.90;99.90
12557;DHT22;6344;49.932;8.308;2023-12-22T07:43:51;7.10;99.90
12557;DHT22;6344;49.932;8.308;2023-12-22T07:46:18;7.20;99.90
12557;DHT22;6344;49.932;8.308;2023-12-22T07:48:46;7.30;99.90
12557;DHT22;6344;49.932;8.308;2023-12-22T07:51:12;7.20;99.90
12557;DHT22;6344;49.932;8.308;2023-12-22T07:53:39;7.20;99.90
12557;DHT22;6344;49.932;8.308;2023-12-22T07:56:06;7.20;99.90
12557;DHT22;6344;49.932;8.308;2023-12-22T07:58:33;7.20;99.90
12557;DHT22;6344;49.932;8.308;2023-12-22T08:01:00;7.20;99.90
12557;DHT22;6344;49.932;8.308;2023-12-22T08:03:26;7.20;99.90
12557;DHT22;6344;49.932;8.308;2023-12-22T08:05:54;7.20;99.90
12557;DHT22;6344;49.932;8.308;2023-12-22T08:08:21;7.20;99.90
12557;DHT22;6344;49.932;8.308;2023-12-22T08:10:48;7.20;99.90
12557;DHT22;6344;49.932;8.308;2023-12-22T08:13:14;7.10;99.90
12557;DHT22;6344;49.932;8.308;2023-12-22T08:15:43;7.10;99.90
12557;DHT22;6344;49.932;8.308;2023-12-22T08:18:09;7.20;99.90
12557;DHT22;6344;49.932;8.308;2023-12-22T08:20:36;7.20;99.90
12557;DHT22;6344;49.932;8.308;2023-12-22T08:23:04;7.10;99.90
12557;DHT22;6344;49.932;8.308;2023-12-22T08:25:31;7.00;99.90
12557;DHT22;6344;49.932;8.308;2023-12-22T08:27:58;6.90;99.90
12557;DHT22;6344;49.932;8.308;2023-12-22T08:30:24;6.90;99.90
12557;DHT22;6344;49.932;8.308;2023-12-22T08:32:51;6.90;99.90
12557;DHT22;6344;49.932;8.308;2023-12-22T08:35:18;6.80;99.90
12557;DHT22;6344;49.932;8.308;2023-12-22T08:37:44;6.80;99.90
12557;DHT22;6344;49.932;8.308;2023-12-22T08:40:13;6.80;99.90
12557;DHT22;6344;49.932;8.308;2023-12-22T08:42:39;6.80;99.90
12557;DHT22;6344;49.932;8.308;2023-12-22T08:45:07;6.80;99.90
12557;DHT22;6344;49.932;8.308;2023-12-22T08:47:34;6.80;99.90
12557;DHT22;6344;49.932;8.308;2023-12-22T08:50:00;6.90;99.90
12557;DHT22;6344;49.932;8.308;2023-12-22T08:52:29;7.00;99.90
12557;DHT22;6344;49.932;8.308;2023-12-22T08:54:56;7.10;99.90
12557;DHT22;6344;49.932;8.308;2023-12-22T08:57:24;7.10;99.90
12557;DHT22;6344;49.932;8.308;2023-12-22T08:59:50;7.10;99.90
12557;DHT22;6344;49.932;8.308;2023-12-22T09:02:17;7.10;99.90
12557;DHT22;6344;49.932;8.308;2023-12-22T09:04:43;7.20;99.90
12557;DHT22;6344;49.932;8.308;2023-12-22T09:07:10;7.20;99.90
12557;DHT22;6344;49.932;8.308;2023-12-22T09:09:37;7.20;99.90
12557;DHT22;6344;49.932;8.308;2023-12-22T09:12:04;7.30;99.90
12557;DHT22;6344;49.932;8.308;2023-12-22T09:14:32;7.30;99.90
12557;DHT22;6344;49.932;8.308;2023-12-22T09:16:59;7.30;99.90
12557;DHT22;6344;49.932;8.308;2023-12-22T09:19:25;7.30;99.90
12557;DHT22;6344;49.932;8.308;2023-12-22T09:21:52;7.40;99.90
12557;DHT22;6344;49.932;8.308;2023-12-22T09:24:19;7.40;99.90
12557;DHT22;6344;49.932;8.308;2023-12-22T09:26:46;7.50;99.90
12557;DHT22;6344;49.932;8.308;2023-12-22T09:29:13;7.50;99.90
12557;DHT22;6344;49.932;8.308;2023-12-22T09:31:41;7.50;99.90
12557;DHT22;6344;49.932;8.308;2023-12-22T09:34:07;7.50;99.90
12557;DHT22;6344;49.932;8.308;2023-12-22T09:36:34;7.50;99.90
12557;DHT22;6344;49.932;8.308;2023-12-22T09:39:01;7.50;99.90
12557;DHT22;6344;49.932;8.308;2023-12-22T09:41:28;7.60;99.90
12557;DHT22;6344;49.932;8.308;2023-12-22T09:43:56;7.70;99.90
12557;DHT22;6344;49.932;8.308;2023-12-22T09:46:23;7.80;99.90
12557;DHT22;6344;49.932;8.308;2023-12-22T09:48:53;7.90;99.90
12557;DHT22;6344;49.932;8.308;2023-12-22T09:51:21;7.90;99.90
12557;DHT22;6344;49.932;8.308;2023-12-22T09:53:49;8.10;99.90
12557;DHT22;6344;49.932;8.308;2023-12-22T09:56:17;8.20;99.90
12557;DHT22;6344;49.932;8.308;2023-12-22T09:58:45;8.20;99.90
12557;DHT22;6344;49.932;8.308;2023-12-22T10:01:12;8.30;99.90
12557;DHT22;6344;49.932;8.308;2023-12-22T10:03:41;8.30;99.90
12557;DHT22;6344;49.932;8.308;2023-12-22T10:06:09;8.30;99.90
12557;DHT22;6344;49.932;8.308;2023-12-22T10:08:36;8.30;99.90
12557;DHT22;6344;49.932;8.308;2023-12-22T10:11:05;8.30;99.90
12557;DHT22;6344;49.932;8.308;2023-12-22T10:13:33;8.50;99.90
12557;DHT22;6344;49.932;8.308;2023-12-22T10:16:04;8.50;99.90
12557;DHT22;6344;49.932;8.308;2023-12-22T10:18:32;8.60;99.90
12557;DHT22;6344;49.932;8.308;2023-12-22T10:20:59;8.60;99.90
12557;DHT22;6344;49.932;8.308;2023-12-22T10:23:27;8.60;99.90
12557;DHT22;6344;49.932;8.308;2023-12-22T10:25:55;8.70;99.90
12557;DHT22;6344;49.932;8.308;2023-12-22T10:28:23;8.70;99.90
12557;DHT22;6344;49.932;8.308;2023-12-22T10:30:52;8.70;99.90
12557;DHT22;6344;49.932;8.308;2023-12-22T10:33:21;8.70;99.90
12557;DHT22;6344;49.932;8.308;2023-12-22T10:35:48;8.70;99.90
12557;DHT22;6344;49.932;8.308;2023-12-22T10:38:18;8.70;99.90
12557;DHT22;6344;49.932;8.308;2023-12-22T10:40:46;8.80;99.90
12557;DHT22;6344;49.932;8.308;2023-12-22T10:43:13;8.80;99.90
12557;DHT22;6344;49.932;8.308;2023-12-22T10:45:41;8.80;99.90
12557;DHT22;6344;49.932;8.308;2023-12-22T10:48:07;8.80;99.90
12557;DHT22;6344;49.932;8.308;2023-12-22T10:50:34;8.80;99.90
12557;DHT22;6344;49.932;8.308;2023-12-22T10:53:01;8.80;99.90
12557;DHT22;6344;49.932;8.308;2023-12-22T10:55:27;8.80;99.90
12557;DHT22;6344;49.932;8.308;2023-12-22T10:57:55;8.90;99.90
12557;DHT22;6344;49.932;8.308;2023-12-22T11:00:22;8.90;99.90
12557;DHT22;6344;49.932;8.308;2023-12-22T11:02:49;8.90;99.90
12557;DHT22;6344;49.932;8.308;2023-12-22T11:05:21;8.80;99.90
12557;DHT22;6344;49.932;8.308;2023-12-22T11:07:53;8.80;99.90
12557;DHT22;6344;49.932;8.308;2023-12-22T11:10:21;8.80;99.90
12557;DHT22;6344;49.932;8.308;2023-12-22T11:12:48;8.80;99.90
12557;DHT22;6344;49.932;8.308;2023-12-22T11:15:18;8.70;99.90
12557;DHT22;6344;49.932;8.308;2023-12-22T11:17:46;8.80;99.90
12557;DHT22;6344;49.932;8.308;2023-12-22T11:20:15;8.80;99.90
12557;DHT22;6344;49.932;8.308;2023-12-22T11:22:42;8.90;99.90
12557;DHT22;6344;49.932;8.308;2023-12-22T11:25:09;8.90;99.90
12557;DHT22;6344;49.932;8.308;2023-12-22T11:27:37;8.90;99.90
12557;DHT22;6344;49.932;8.308;2023-12-22T11:30:05;9.00;99.90
12557;DHT22;6344;49.932;8.308;2023-12-22T11:32:35;9.00;99.90
12557;DHT22;6344;49.932;8.308;2023-12-22T11:35:02;9.00;99.90
12557;DHT22;6344;49.932;8.308;2023-12-22T11:37:31;8.90;99.90
12557;DHT22;6344;49.932;8.308;2023-12-22T11:39:57;8.70;99.90
12557;DHT22;6344;49.932;8.308;2023-12-22T11:42:28;8.50;99.90
12557;DHT22;6344;49.932;8.308;2023-12-22T11:44:57;8.40;99.90
12557;DHT22;6344;49.932;8.308;2023-12-22T11:47:24;8.30;99.90
12557;DHT22;6344;49.932;8.308;2023-12-22T11:49:52;8.30;99.90
12557;DHT22;6344;49.932;8.308;2023-12-22T11:52:25;8.30;99.90
12557;DHT22;6344;49.932;8.308;2023-12-22T11:54:54;8.40;99.90
12557;DHT22;6344;49.932;8.308;2023-12-22T11:57:32;8.40;99.90
12557;DHT22;6344;49.932;8.308;2023-12-22T12:00:01;8.50;99.90
12557;DHT22;6344;49.932;8.308;2023-12-22T12:02:29;8.40;99.90
12557;DHT22;6344;49.932;8.308;2023-12-22T12:04:59;8.40;99.90
12557;DHT22;6344;49.932;8.308;2023-12-22T12:07:39;8.40;99.90
12557;DHT22;6344;49.932;8.308;2023-12-22T12:10:07;8.40;99.90
12557;DHT22;6344;49.932;8.308;2023-12-22T12:12:34;8.40;99.90
12557;DHT22;6344;49.932;8.308;2023-12-22T12:15:07;8.40;99.90
12557;DHT22;6344;49.932;8.308;2023-12-22T12:17:38;8.50;99.90
12557;DHT22;6344;49.932;8.308;2023-12-22T12:20:07;8.50;99.90
12557;DHT22;6344;49.932;8.308;2023-12-22T12:22:35;8.50;99.90
12557;DHT22;6344;49.932;8.308;2023-12-22T12:25:06;8.50;99.90
12557;DHT22;6344;49.932;8.308;2023-12-22T12:27:34;8.60;99.90
12557;DHT22;6344;49.932;8.308;2023-12-22T12:30:07;8.70;99.90
12557;DHT22;6344;49.932;8.308;2023-12-22T12:32:35;8.80;99.90
12557;DHT22;6344;49.932;8.308;2023-12-22T12:35:03;8.80;99.90
12557;DHT22;6344;49.932;8.308;2023-12-22T12:37:32;8.90;99.90
12557;DHT22;6344;49.932;8.308;2023-12-22T12:39:59;9.00;99.90
12557;DHT22;6344;49.932;8.308;2023-12-22T12:42:29;9.00;99.90
12557;DHT22;6344;49.932;8.308;2023-12-22T12:44:56;9.10;99.90
12557;DHT22;6344;49.932;8.308;2023-12-22T12:47:22;9.10;99.90
12557;DHT22;6344;49.932;8.308;2023-12-22T12:49:56;9.20;99.90
12557;DHT22;6344;49.932;8.308;2023-12-22T12:52:23;9.30;99.90
12557;DHT22;6344;49.932;8.308;2023-12-22T12:54:52;9.30;99.90
12557;DHT22;6344;49.932;8.308;2023-12-22T12:57:19;9.30;99.90
12557;DHT22;6344;49.932;8.308;2023-12-22T12:59:46;9.30;99.90
12557;DHT22;6344;49.932;8.308;2023-12-22T13:02:14;9.30;99.90
12557;DHT22;6344;49.932;8.308;2023-12-22T13:04:41;9.40;99.90
12557;DHT22;6344;49.932;8.308;2023-12-22T13:07:08;9.40;99.90
12557;DHT22;6344;49.932;8.308;2023-12-22T13:09:36;9.40;99.90
12557;DHT22;6344;49.932;8.308;2023-12-22T13:12:05;9.40;99.90
12557;DHT22;6344;49.932;8.308;2023-12-22T13:14:32;9.50;99.90
12557;DHT22;6344;49.932;8.308;2023-12-22T13:16:58;9.50;99.90
12557;DHT22;6344;49.932;8.308;2023-12-22T13:19:26;9.50;99.90
12557;DHT22;6344;49.932;8.308;2023-12-22T13:21:53;9.50;99.90
12557;DHT22;6344;49.932;8.308;2023-12-22T13:24:20;9.60;99.90
12557;DHT22;6344;49.932;8.308;2023-12-22T13:26:47;9.70;99.90
12557;DHT22;6344;49.932;8.308;2023-12-22T13:29:15;9.60;99.90
12557;DHT22;6344;49.932;8.308;2023-12-22T13:31:42;9.70;99.90
12557;DHT22;6344;49.932;8.308;2023-12-22T13:34:11;9.70;99.90
12557;DHT22;6344;49.932;8.308;2023-12-22T13:36:38;9.80;99.90
12557;DHT22;6344;49.932;8.308;2023-12-22T13:39:05;9.70;99.90
12557;DHT22;6344;49.932;8.308;2023-12-22T13:41:33;9.60;99.90
12557;DHT22;6344;49.932;8.308;2023-12-22T13:44:03;9.60;99.90
12557;DHT22;6344;49.932;8.308;2023-12-22T13:46:31;9.70;99.90
12557;DHT22;6344;49.932;8.308;2023-12-22T13:48:58;9.70;99.90
12557;DHT22;6344;49.932;8.308;2023-12-22T13:51:25;9.70;99.90
12557;DHT22;6344;49.932;8.308;2023-12-22T13:53:52;9.70;99.90
12557;DHT22;6344;49.932;8.308;2023-12-22T13:56:18;9.70;99.90
12557;DHT22;6344;49.932;8.308;2023-12-22T13:58:46;9.80;99.90
12557;DHT22;6344;49.932;8.308;2023-12-22T14:01:13;9.70;99.90
12557;DHT22;6344;49.932;8.308;2023-12-22T14:03:43;9.70;99.90
12557;DHT22;6344;49.932;8.308;2023-12-22T14:06:10;9.80;99.90
12557;DHT22;6344;49.932;8.308;2023-12-22T14:08:38;9.90;99.90
12557;DHT22;6344;49.932;8.308;2023-12-22T14:11:05;10.00;99.90
12557;DHT22;6344;49.932;8.308;2023-12-22T14:13:32;10.10;99.90
12557;DHT22;6344;49.932;8.308;2023-12-22T14:16:01;10.20;99.90
12557;DHT22;6344;49.932;8.308;2023-12-22T14:18:27;10.00;99.90
12557;DHT22;6344;49.932;8.308;2023-12-22T14:20:55;10.10;99.90
12557;DHT22;6344;49.932;8.308;2023-12-22T14:23:22;10.10;99.90
12557;DHT22;6344;49.932;8.308;2023-12-22T14:25:48;10.30;99.90
12557;DHT22;6344;49.932;8.308;2023-12-22T14:28:15;10.20;99.90
12557;DHT22;6344;49.932;8.308;2023-12-22T14:30:42;10.10;99.90
12557;DHT22;6344;49.932;8.308;2023-12-22T14:33:09;10.20;99.90
12557;DHT22;6344;49.932;8.308;2023-12-22T14:35:35;10.20;99.90
12557;DHT22;6344;49.932;8.308;2023-12-22T14:38:03;10.10;99.90
12557;DHT22;6344;49.932;8.308;2023-12-22T14:40:30;10.10;99.90
12557;DHT22;6344;49.932;8.308;2023-12-22T14:42:58;10.10;99.90
12557;DHT22;6344;49.932;8.308;2023-12-22T14:45:27;10.00;99.90
12557;DHT22;6344;49.932;8.308;2023-12-22T14:47:53;10.00;99.90
12557;DHT22;6344;49.932;8.308;2023-12-22T14:50:20;10.00;99.90
12557;DHT22;6344;49.932;8.308;2023-12-22T14:52:47;10.00;99.90
12557;DHT22;6344;49.932;8.308;2023-12-22T14:55:15;9.90;99.90
12557;DHT22;6344;49.932;8.308;2023-12-22T14:57:43;10.00;99.90
12557;DHT22;6344;49.932;8.308;2023-12-22T15:00:10;10.10;99.90
12557;DHT22;6344;49.932;8.308;2023-12-22T15:02:37;10.00;99.90
12557;DHT22;6344;49.932;8.308;2023-12-22T15:05:04;10.10;99.90
12557;DHT22;6344;49.932;8.308;2023-12-22T15:07:30;10.10;99.90
12557;DHT22;6344;49.932;8.308;2023-12-22T15:09:57;10.20;99.90
12557;DHT22;6344;49.932;8.308;2023-12-22T15:12:25;10.10;99.90
12557;DHT22;6344;49.932;8.308;2023-12-22T15:14:54;10.10;99.90
12557;DHT22;6344;49.932;8.308;2023-12-22T15:17:21;10.10;99.90
12557;DHT22;6344;49.932;8.308;2023-12-22T15:19:47;10.00;99.90
12557;DHT22;6344;49.932;8.308;2023-12-22T15:22:14;10.10;99.90
12557;DHT22;6344;49.932;8.308;2023-12-22T15:24:41;10.00;99.90
12557;DHT22;6344;49.932;8.308;2023-12-22T15:27:09;10.00;99.90
12557;DHT22;6344;49.932;8.308;2023-12-22T15:29:37;10.00;99.90
12557;DHT22;6344;49.932;8.308;2023-12-22T15:32:04;10.00;99.90
12557;DHT22;6344;49.932;8.308;2023-12-22T15:34:30;10.00;99.90
12557;DHT22;6344;49.932;8.308;2023-12-22T15:36:57;10.00;99.90
12557;DHT22;6344;49.932;8.308;2023-12-22T15:39:24;9.80;99.90
12557;DHT22;6344;49.932;8.308;2023-12-22T15:41:50;9.80;99.90
12557;DHT22;6344;49.932;8.308;2023-12-22T15:44:17;9.90;99.90
12557;DHT22;6344;49.932;8.308;2023-12-22T15:46:45;9.90;99.90
12557;DHT22;6344;49.932;8.308;2023-12-22T15:49:12;9.90;99.90
12557;DHT22;6344;49.932;8.308;2023-12-22T15:51:38;10.00;99.90
12557;DHT22;6344;49.932;8.308;2023-12-22T15:54:05;9.90;99.90
12557;DHT22;6344;49.932;8.308;2023-12-22T15:56:31;10.00;99.90
12557;DHT22;6344;49.932;8.308;2023-12-22T15:58:58;10.00;99.90
12557;DHT22;6344;49.932;8.308;2023-12-22T16:01:25;10.00;99.90